sensor_id;sensor_type;location;lat;lon;timestamp;temperature;humidity
7411;DHT22;3747;48.628;9.058;2022-10-16T00:00:30;14.90;99.90
7411;DHT22;3747;48.628;9.058;2022-10-16T00:02:56;14.90;99.90
7411;DHT22;3747;48.628;9.058;2022-10-16T00:05:24;14.90;99.90
7411;DHT22;3747;48.628;9.058;2022-10-16T00:07:51;14.80;99.90
7411;DHT22;3747;48.628;9.058;2022-10-16T00:10:18;14.80;99.90
7411;DHT22;3747;48.628;9.058;2022-10-16T00:12:44;14.70;99.90
7411;DHT22;3747;48.628;9.058;2022-10-16T00:15:11;14.70;99.90
7411;DHT22;3747;48.628;9.058;2022-10-16T00:17:38;14.70;99.90
7411;DHT22;3747;48.628;9.058;2022-10-16T00:20:06;14.70;99.90
7411;DHT22;3747;48.628;9.058;2022-10-16T00:22:34;14.60;99.90
7411;DHT22;3747;48.628;9.058;2022-10-16T00:25:01;14.60;99.90
7411;DHT22;3747;48.628;9.058;2022-10-16T00:27:27;14.50;99.90
7411;DHT22;3747;48.628;9.058;2022-10-16T00:29:54;14.50;99.90
7411;DHT22;3747;48.628;9.058;2022-10-16T00:32:21;14.40;99.90
7411;DHT22;3747;48.628;9.058;2022-10-16T00:34:48;14.40;99.90
7411;DHT22;3747;48.628;9.058;2022-10-16T00:37:14;14.40;99.90
7411;DHT22;3747;48.628;9.058;2022-10-16T00:39:42;14.30;99.90
7411;DHT22;3747;48.628;9.058;2022-10-16T00:42:11;14.30;99.90
7411;DHT22;3747;48.628;9.058;2022-10-16T00:44:45;14.20;99.90
7411;DHT22;3747;48.628;9.058;2022-10-16T00:47:17;14.10;99.90
7411;DHT22;3747;48.628;9.058;2022-10-16T00:49:46;14.10;99.90
7411;DHT22;3747;48.628;9.058;2022-10-16T00:52:14;14.10;99.90
7411;DHT22;3747;48.628;9.058;2022-10-16T00:54:43;14.10;99.90
7411;DHT22;3747;48.628;9.058;2022-10-16T00:57:10;14.00;99.90
7411;DHT22;3747;48.628;9.058;2022-10-16T00:59:39;14.00;99.90
7411;DHT22;3747;48.628;9.058;2022-10-16T01:02:08;14.00;99.90
7411;DHT22;3747;48.628;9.058;2022-10-16T01:04:36;14.10;99.90
7411;DHT22;3747;48.628;9.058;2022-10-16T01:07:10;14.10;99.90
7411;DHT22;3747;48.628;9.058;2022-10-16T01:09:50;14.20;99.90
7411;DHT22;3747;48.628;9.058;2022-10-16T01:12:25;14.30;99.90
7411;DHT22;3747;48.628;9.058;2022-10-16T01:14:59;14.30;99.90
7411;DHT22;3747;48.628;9.058;2022-10-16T01:17:31;14.30;99.90
7411;DHT22;3747;48.628;9.058;2022-10-16T01:20:11;14.30;99.90
7411;DHT22;3747;48.628;9.058;2022-10-16T01:22:55;14.30;99.90
7411;DHT22;3747;48.628;9.058;2022-10-16T01:25:37;14.30;99.90
7411;DHT22;3747;48.628;9.058;2022-10-16T01:28:09;14.20;99.90
7411;DHT22;3747;48.628;9.058;2022-10-16T01:30:40;14.30;99.90
7411;DHT22;3747;48.628;9.058;2022-10-16T01:33:11;14.10;99.90
7411;DHT22;3747;48.628;9.058;2022-10-16T01:35:42;14.10;99.90
7411;DHT22;3747;48.628;9.058;2022-10-16T01:38:14;14.10;99.90
7411;DHT22;3747;48.628;9.058;2022-10-16T01:40:47;14.10;99.90
7411;DHT22;3747;48.628;9.058;2022-10-16T01:43:20;14.00;99.90
7411;DHT22;3747;48.628;9.058;2022-10-16T01:45:48;14.00;99.90
7411;DHT22;3747;48.628;9.058;2022-10-16T01:48:18;14.00;99.90
7411;DHT22;3747;48.628;9.058;2022-10-16T01:50:53;14.00;99.90
7411;DHT22;3747;48.628;9.058;2022-10-16T01:53:22;13.90;99.90
7411;DHT22;3747;48.628;9.058;2022-10-16T01:55:50;13.80;99.90
7411;DHT22;3747;48.628;9.058;2022-10-16T01:58:21;13.70;99.90
7411;DHT22;3747;48.628;9.058;2022-10-16T02:00:48;13.70;99.90
7411;DHT22;3747;48.628;9.058;2022-10-16T02:03:18;13.70;99.90
7411;DHT22;3747;48.628;9.058;2022-10-16T02:05:47;13.60;99.90
7411;DHT22;3747;48.628;9.058;2022-10-16T02:08:16;13.60;99.90
7411;DHT22;3747;48.628;9.058;2022-10-16T02:10:43;13.60;99.90
7411;DHT22;3747;48.628;9.058;2022-10-16T02:13:13;13.50;99.90
7411;DHT22;3747;48.628;9.058;2022-10-16T02:15:42;13.50;99.90
7411;DHT22;3747;48.628;9.058;2022-10-16T02:18:09;13.50;99.90
7411;DHT22;3747;48.628;9.058;2022-10-16T02:20:40;13.40;99.90
7411;DHT22;3747;48.628;9.058;2022-10-16T02:23:12;13.40;99.90
7411;DHT22;3747;48.628;9.058;2022-10-16T02:25:44;13.40;99.90
7411;DHT22;3747;48.628;9.058;2022-10-16T02:28:17;13.30;99.90
7411;DHT22;3747;48.628;9.058;2022-10-16T02:30:49;13.30;99.90
7411;DHT22;3747;48.628;9.058;2022-10-16T02:33:18;13.30;99.90
7411;DHT22;3747;48.628;9.058;2022-10-16T02:35:47;13.30;99.90
7411;DHT22;3747;48.628;9.058;2022-10-16T02:38:16;13.20;99.90
7411;DHT22;3747;48.628;9.058;2022-10-16T02:40:44;13.10;99.90
7411;DHT22;3747;48.628;9.058;2022-10-16T02:43:11;13.10;99.90
7411;DHT22;3747;48.628;9.058;2022-10-16T02:45:38;13.00;99.90
7411;DHT22;3747;48.628;9.058;2022-10-16T02:48:07;13.00;99.90
7411;DHT22;3747;48.628;9.058;2022-10-16T02:50:34;13.00;99.90
7411;DHT22;3747;48.628;9.058;2022-10-16T02:53:01;12.90;99.90
7411;DHT22;3747;48.628;9.058;2022-10-16T02:55:27;12.90;99.90
7411;DHT22;3747;48.628;9.058;2022-10-16T02:57:54;13.10;99.90
7411;DHT22;3747;48.628;9.058;2022-10-16T03:00:21;13.20;99.90
7411;DHT22;3747;48.628;9.058;2022-10-16T03:02:48;13.30;99.90
7411;DHT22;3747;48.628;9.058;2022-10-16T03:05:16;13.40;99.90
7411;DHT22;3747;48.628;9.058;2022-10-16T03:07:43;13.30;99.90
7411;DHT22;3747;48.628;9.058;2022-10-16T03:10:09;13.30;99.90
7411;DHT22;3747;48.628;9.058;2022-10-16T03:12:36;13.20;99.90
7411;DHT22;3747;48.628;9.058;2022-10-16T03:15:04;13.20;99.90
7411;DHT22;3747;48.628;9.058;2022-10-16T03:17:32;13.20;99.90
7411;DHT22;3747;48.628;9.058;2022-10-16T03:19:58;13.30;99.90
7411;DHT22;3747;48.628;9.058;2022-10-16T03:22:26;13.30;99.90
7411;DHT22;3747;48.628;9.058;2022-10-16T03:24:53;13.30;99.90
7411;DHT22;3747;48.628;9.058;2022-10-16T03:27:20;13.30;99.90
7411;DHT22;3747;48.628;9.058;2022-10-16T03:29:47;13.30;99.90
7411;DHT22;3747;48.628;9.058;2022-10-16T03:32:13;13.30;99.90
7411;DHT22;3747;48.628;9.058;2022-10-16T03:34:40;13.30;99.90
7411;DHT22;3747;48.628;9.058;2022-10-16T03:37:07;13.40;99.90
7411;DHT22;3747;48.628;9.058;2022-10-16T03:39:35;13.40;99.90
7411;DHT22;3747;48.628;9.058;2022-10-16T03:42:02;13.40;99.90
7411;DHT22;3747;48.628;9.058;2022-10-16T03:44:28;13.40;99.90
7411;DHT22;3747;48.628;9.058;2022-10-16T03:46:55;13.30;99.90
7411;DHT22;3747;48.628;9.058;2022-10-16T03:49:22;13.40;99.90
7411;DHT22;3747;48.628;9.058;2022-10-16T03:51:48;13.40;99.90
7411;DHT22;3747;48.628;9.058;2022-10-16T03:54:15;13.40;99.90
7411;DHT22;3747;48.628;9.058;2022-10-16T03:56:43;13.40;99.90
7411;DHT22;3747;48.628;9.058;2022-10-16T03:59:10;13.40;99.90
7411;DHT22;3747;48.628;9.058;2022-10-16T04:01:36;13.40;99.90
7411;DHT22;3747;48.628;9.058;2022-10-16T04:04:03;13.50;99.90
7411;DHT22;3747;48.628;9.058;2022-10-16T04:06:30;13.40;99.90
7411;DHT22;3747;48.628;9.058;2022-10-16T04:08:56;13.30;99.90
7411;DHT22;3747;48.628;9.058;2022-10-16T04:11:23;13.30;99.90
7411;DHT22;3747;48.628;9.058;2022-10-16T04:13:51;13.20;99.90
7411;DHT22;3747;48.628;9.058;2022-10-16T04:16:18;13.20;99.90
7411;DHT22;3747;48.628;9.058;2022-10-16T04:18:45;13.10;99.90
7411;DHT22;3747;48.628;9.058;2022-10-16T04:21:11;13.10;99.90
7411;DHT22;3747;48.628;9.058;2022-10-16T04:23:38;13.10;99.90
7411;DHT22;3747;48.628;9.058;2022-10-16T04:26:05;13.10;99.90
7411;DHT22;3747;48.628;9.058;2022-10-16T04:28:32;13.00;99.90
7411;DHT22;3747;48.628;9.058;2022-10-16T04:31:00;12.90;99.90
7411;DHT22;3747;48.628;9.058;2022-10-16T04:33:29;12.90;99.90
7411;DHT22;3747;48.628;9.058;2022-10-16T04:35:57;13.00;99.90
7411;DHT22;3747;48.628;9.058;2022-10-16T04:38:24;13.00;99.90
7411;DHT22;3747;48.628;9.058;2022-10-16T04:40:51;12.90;99.90
7411;DHT22;3747;48.628;9.058;2022-10-16T04:43:18;12.90;99.90
7411;DHT22;3747;48.628;9.058;2022-10-16T04:45:45;13.00;99.90
7411;DHT22;3747;48.628;9.058;2022-10-16T04:48:13;13.00;99.90
7411;DHT22;3747;48.628;9.058;2022-10-16T04:50:39;13.10;99.90
7411;DHT22;3747;48.628;9.058;2022-10-16T04:53:07;13.10;99.90
7411;DHT22;3747;48.628;9.058;2022-10-16T04:55:34;13.10;99.90
7411;DHT22;3747;48.628;9.058;2022-10-16T04:58:01;13.00;99.90
7411;DHT22;3747;48.628;9.058;2022-10-16T05:00:28;13.00;99.90
7411;DHT22;3747;48.628;9.058;2022-10-16T05:02:55;12.90;99.90
7411;DHT22;3747;48.628;9.058;2022-10-16T05:05:23;12.80;99.90
7411;DHT22;3747;48.628;9.058;2022-10-16T05:07:50;12.80;99.90
7411;DHT22;3747;48.628;9.058;2022-10-16T05:10:17;12.80;99.90
7411;DHT22;3747;48.628;9.058;2022-10-16T05:12:44;12.80;99.90
7411;DHT22;3747;48.628;9.058;2022-10-16T05:15:11;12.80;99.90
7411;DHT22;3747;48.628;9.058;2022-10-16T05:17:38;12.80;99.90
7411;DHT22;3747;48.628;9.058;2022-10-16T05:20:05;12.80;99.90
7411;DHT22;3747;48.628;9.058;2022-10-16T05:22:33;12.80;99.90
7411;DHT22;3747;48.628;9.058;2022-10-16T05:25:00;12.60;99.90
7411;DHT22;3747;48.628;9.058;2022-10-16T05:27:27;12.60;99.90
7411;DHT22;3747;48.628;9.058;2022-10-16T05:29:54;12.50;99.90
7411;DHT22;3747;48.628;9.058;2022-10-16T05:32:20;12.40;99.90
7411;DHT22;3747;48.628;9.058;2022-10-16T05:34:47;12.30;99.90
7411;DHT22;3747;48.628;9.058;2022-10-16T05:37:14;12.20;99.90
7411;DHT22;3747;48.628;9.058;2022-10-16T05:39:42;12.20;99.90
7411;DHT22;3747;48.628;9.058;2022-10-16T05:42:08;12.20;99.90
7411;DHT22;3747;48.628;9.058;2022-10-16T05:44:35;12.20;99.90
7411;DHT22;3747;48.628;9.058;2022-10-16T05:47:02;12.10;99.90
7411;DHT22;3747;48.628;9.058;2022-10-16T05:49:28;12.10;99.90
7411;DHT22;3747;48.628;9.058;2022-10-16T05:51:55;12.20;99.90
7411;DHT22;3747;48.628;9.058;2022-10-16T05:54:22;12.20;99.90
7411;DHT22;3747;48.628;9.058;2022-10-16T05:56:50;12.20;99.90
7411;DHT22;3747;48.628;9.058;2022-10-16T05:59:17;12.30;99.90
7411;DHT22;3747;48.628;9.058;2022-10-16T06:01:43;12.40;99.90
7411;DHT22;3747;48.628;9.058;2022-10-16T06:04:10;12.60;99.90
7411;DHT22;3747;48.628;9.058;2022-10-16T06:06:37;12.70;99.90
7411;DHT22;3747;48.628;9.058;2022-10-16T06:09:04;12.90;99.90
7411;DHT22;3747;48.628;9.058;2022-10-16T06:11:32;13.00;99.90
7411;DHT22;3747;48.628;9.058;2022-10-16T06:14:01;13.10;99.90
7411;DHT22;3747;48.628;9.058;2022-10-16T06:16:32;13.30;99.90
7411;DHT22;3747;48.628;9.058;2022-10-16T06:18:59;13.50;99.90
7411;DHT22;3747;48.628;9.058;2022-10-16T06:21:27;13.60;99.90
7411;DHT22;3747;48.628;9.058;2022-10-16T06:23:55;13.80;99.90
7411;DHT22;3747;48.628;9.058;2022-10-16T06:26:24;14.00;99.90
7411;DHT22;3747;48.628;9.058;2022-10-16T06:28:51;14.20;99.90
7411;DHT22;3747;48.628;9.058;2022-10-16T06:31:20;14.40;99.90
7411;DHT22;3747;48.628;9.058;2022-10-16T06:33:50;14.50;99.90
7411;DHT22;3747;48.628;9.058;2022-10-16T06:36:17;14.60;99.90
7411;DHT22;3747;48.628;9.058;2022-10-16T06:38:44;14.80;99.90
7411;DHT22;3747;48.628;9.058;2022-10-16T06:41:13;15.00;99.90
7411;DHT22;3747;48.628;9.058;2022-10-16T06:43:40;15.20;99.90
7411;DHT22;3747;48.628;9.058;2022-10-16T06:46:09;15.50;99.90
7411;DHT22;3747;48.628;9.058;2022-10-16T06:48:38;15.70;99.90
7411;DHT22;3747;48.628;9.058;2022-10-16T06:51:06;15.90;99.90
7411;DHT22;3747;48.628;9.058;2022-10-16T06:53:38;16.00;99.90
7411;DHT22;3747;48.628;9.058;2022-10-16T06:56:09;16.00;99.90
7411;DHT22;3747;48.628;9.058;2022-10-16T06:58:36;16.10;99.90
7411;DHT22;3747;48.628;9.058;2022-10-16T07:01:03;16.20;99.90
7411;DHT22;3747;48.628;9.058;2022-10-16T07:03:30;16.20;99.90
7411;DHT22;3747;48.628;9.058;2022-10-16T07:06:01;16.30;99.90
7411;DHT22;3747;48.628;9.058;2022-10-16T07:08:31;16.30;99.90
7411;DHT22;3747;48.628;9.058;2022-10-16T07:10:59;16.40;99.90
7411;DHT22;3747;48.628;9.058;2022-10-16T07:13:26;16.40;99.90
7411;DHT22;3747;48.628;9.058;2022-10-16T07:15:53;16.40;99.90
7411;DHT22;3747;48.628;9.058;2022-10-16T07:18:19;16.50;99.90
7411;DHT22;3747;48.628;9.058;2022-10-16T07:20:47;16.50;99.90
7411;DHT22;3747;48.628;9.058;2022-10-16T07:23:15;16.50;99.90
7411;DHT22;3747;48.628;9.058;2022-10-16T07:25:42;16.20;99.90
7411;DHT22;3747;48.628;9.058;2022-10-16T07:28:08;16.20;99.90
7411;DHT22;3747;48.628;9.058;2022-10-16T07:30:35;16.20;99.90
7411;DHT22;3747;48.628;9.058;2022-10-16T07:33:03;16.20;99.90
7411;DHT22;3747;48.628;9.058;2022-10-16T07:35:30;15.80;99.90
7411;DHT22;3747;48.628;9.058;2022-10-16T07:37:56;15.70;99.90
7411;DHT22;3747;48.628;9.058;2022-10-16T07:40:26;15.80;99.90
7411;DHT22;3747;48.628;9.058;2022-10-16T07:42:53;15.80;99.90
7411;DHT22;3747;48.628;9.058;2022-10-16T07:45:20;16.00;99.90
7411;DHT22;3747;48.628;9.058;2022-10-16T07:47:46;16.20;99.90
7411;DHT22;3747;48.628;9.058;2022-10-16T07:50:13;16.30;99.90
7411;DHT22;3747;48.628;9.058;2022-10-16T07:52:40;16.50;99.90
7411;DHT22;3747;48.628;9.058;2022-10-16T07:55:07;16.70;99.90
7411;DHT22;3747;48.628;9.058;2022-10-16T07:57:35;16.70;99.90
7411;DHT22;3747;48.628;9.058;2022-10-16T08:00:03;16.80;99.90
7411;DHT22;3747;48.628;9.058;2022-10-16T08:02:30;16.70;99.90
7411;DHT22;3747;48.628;9.058;2022-10-16T08:04:57;16.80;99.90
7411;DHT22;3747;48.628;9.058;2022-10-16T08:07:24;16.80;99.90
7411;DHT22;3747;48.628;9.058;2022-10-16T08:09:51;16.80;99.90
7411;DHT22;3747;48.628;9.058;2022-10-16T08:12:18;16.80;99.90
7411;DHT22;3747;48.628;9.058;2022-10-16T08:14:46;16.90;99.90
7411;DHT22;3747;48.628;9.058;2022-10-16T08:17:14;17.00;99.90
7411;DHT22;3747;48.628;9.058;2022-10-16T08:19:44;17.20;99.90
7411;DHT22;3747;48.628;9.058;2022-10-16T08:22:11;17.50;99.90
7411;DHT22;3747;48.628;9.058;2022-10-16T08:24:38;17.70;99.90
7411;DHT22;3747;48.628;9.058;2022-10-16T08:27:04;17.70;99.90
7411;DHT22;3747;48.628;9.058;2022-10-16T08:29:32;17.90;99.90
7411;DHT22;3747;48.628;9.058;2022-10-16T08:32:00;18.10;99.90
7411;DHT22;3747;48.628;9.058;2022-10-16T08:34:39;18.10;99.90
7411;DHT22;3747;48.628;9.058;2022-10-16T08:37:06;18.20;99.90
7411;DHT22;3747;48.628;9.058;2022-10-16T08:39:38;18.30;99.90
7411;DHT22;3747;48.628;9.058;2022-10-16T08:42:21;18.20;99.90
7411;DHT22;3747;48.628;9.058;2022-10-16T08:45:15;18.10;99.90
7411;DHT22;3747;48.628;9.058;2022-10-16T08:47:51;18.10;99.90
7411;DHT22;3747;48.628;9.058;2022-10-16T08:50:23;18.00;99.90
7411;DHT22;3747;48.628;9.058;2022-10-16T08:52:51;18.00;99.90
7411;DHT22;3747;48.628;9.058;2022-10-16T08:55:28;17.90;99.90
7411;DHT22;3747;48.628;9.058;2022-10-16T08:57:55;18.10;99.90
7411;DHT22;3747;48.628;9.058;2022-10-16T09:00:23;18.00;99.90
7411;DHT22;3747;48.628;9.058;2022-10-16T09:02:55;18.10;99.90
7411;DHT22;3747;48.628;9.058;2022-10-16T09:05:47;18.40;99.90
7411;DHT22;3747;48.628;9.058;2022-10-16T09:08:27;18.60;99.90
7411;DHT22;3747;48.628;9.058;2022-10-16T09:10:58;18.70;99.90
7411;DHT22;3747;48.628;9.058;2022-10-16T09:13:29;18.80;99.90
7411;DHT22;3747;48.628;9.058;2022-10-16T09:16:09;18.60;99.90
7411;DHT22;3747;48.628;9.058;2022-10-16T09:18:43;18.50;99.90
7411;DHT22;3747;48.628;9.058;2022-10-16T09:21:15;18.50;99.90
7411;DHT22;3747;48.628;9.058;2022-10-16T09:23:47;18.50;99.90
7411;DHT22;3747;48.628;9.058;2022-10-16T09:26:15;18.70;99.90
7411;DHT22;3747;48.628;9.058;2022-10-16T09:28:43;18.80;99.90
7411;DHT22;3747;48.628;9.058;2022-10-16T09:31:19;19.10;99.90
7411;DHT22;3747;48.628;9.058;2022-10-16T09:33:52;19.40;99.90
7411;DHT22;3747;48.628;9.058;2022-10-16T09:36:23;19.70;99.90
7411;DHT22;3747;48.628;9.058;2022-10-16T09:39:04;19.70;99.90
7411;DHT22;3747;48.628;9.058;2022-10-16T09:41:34;20.00;99.90
7411;DHT22;3747;48.628;9.058;2022-10-16T09:44:03;20.50;99.90
7411;DHT22;3747;48.628;9.058;2022-10-16T09:46:31;20.40;99.90
7411;DHT22;3747;48.628;9.058;2022-10-16T09:49:01;20.40;99.90
7411;DHT22;3747;48.628;9.058;2022-10-16T09:51:30;20.70;99.90
7411;DHT22;3747;48.628;9.058;2022-10-16T09:54:00;20.80;99.90
7411;DHT22;3747;48.628;9.058;2022-10-16T09:56:28;20.80;99.90
7411;DHT22;3747;48.628;9.058;2022-10-16T09:58:57;20.70;99.90
7411;DHT22;3747;48.628;9.058;2022-10-16T10:01:29;20.50;99.90
7411;DHT22;3747;48.628;9.058;2022-10-16T10:03:57;20.60;99.90
7411;DHT22;3747;48.628;9.058;2022-10-16T10:06:29;20.90;99.90
7411;DHT22;3747;48.628;9.058;2022-10-16T10:09:03;21.00;99.90
7411;DHT22;3747;48.628;9.058;2022-10-16T10:11:41;21.10;99.90
7411;DHT22;3747;48.628;9.058;2022-10-16T10:14:18;21.00;99.90
7411;DHT22;3747;48.628;9.058;2022-10-16T10:16:46;21.10;99.90
7411;DHT22;3747;48.628;9.058;2022-10-16T10:19:15;21.00;99.90
7411;DHT22;3747;48.628;9.058;2022-10-16T10:21:43;21.30;99.90
7411;DHT22;3747;48.628;9.058;2022-10-16T10:24:11;21.70;99.90
7411;DHT22;3747;48.628;9.058;2022-10-16T10:26:44;22.00;99.90
7411;DHT22;3747;48.628;9.058;2022-10-16T10:29:18;22.30;99.90
7411;DHT22;3747;48.628;9.058;2022-10-16T10:31:53;22.20;99.90
7411;DHT22;3747;48.628;9.058;2022-10-16T10:34:39;22.10;99.90
7411;DHT22;3747;48.628;9.058;2022-10-16T10:37:21;21.70;99.90
7411;DHT22;3747;48.628;9.058;2022-10-16T10:40:07;21.80;99.90
7411;DHT22;3747;48.628;9.058;2022-10-16T10:42:43;22.00;99.90
7411;DHT22;3747;48.628;9.058;2022-10-16T10:45:38;22.00;99.90
7411;DHT22;3747;48.628;9.058;2022-10-16T10:48:24;21.80;99.90
7411;DHT22;3747;48.628;9.058;2022-10-16T10:50:56;21.60;99.90
7411;DHT22;3747;48.628;9.058;2022-10-16T10:53:40;21.60;99.90
7411;DHT22;3747;48.628;9.058;2022-10-16T10:56:19;21.80;99.90
7411;DHT22;3747;48.628;9.058;2022-10-16T10:59:11;21.80;99.90
7411;DHT22;3747;48.628;9.058;2022-10-16T11:01:48;21.90;99.90
7411;DHT22;3747;48.628;9.058;2022-10-16T11:04:39;22.00;99.90
7411;DHT22;3747;48.628;9.058;2022-10-16T11:07:13;22.10;99.90
7411;DHT22;3747;48.628;9.058;2022-10-16T11:09:45;22.10;99.90
7411;DHT22;3747;48.628;9.058;2022-10-16T11:12:17;22.00;99.90
7411;DHT22;3747;48.628;9.058;2022-10-16T11:14:49;22.10;99.90
7411;DHT22;3747;48.628;9.058;2022-10-16T11:17:21;22.20;99.90
7411;DHT22;3747;48.628;9.058;2022-10-16T11:19:55;22.50;99.90
7411;DHT22;3747;48.628;9.058;2022-10-16T11:22:26;22.60;99.90
7411;DHT22;3747;48.628;9.058;2022-10-16T11:25:01;22.50;99.90
7411;DHT22;3747;48.628;9.058;2022-10-16T11:27:37;22.60;99.90
7411;DHT22;3747;48.628;9.058;2022-10-16T11:30:12;22.50;99.90
7411;DHT22;3747;48.628;9.058;2022-10-16T11:32:53;22.30;99.90
7411;DHT22;3747;48.628;9.058;2022-10-16T11:35:25;22.40;99.90
7411;DHT22;3747;48.628;9.058;2022-10-16T11:37:57;22.40;99.90
7411;DHT22;3747;48.628;9.058;2022-10-16T11:40:30;22.40;99.90
7411;DHT22;3747;48.628;9.058;2022-10-16T11:43:04;22.30;99.90
7411;DHT22;3747;48.628;9.058;2022-10-16T11:45:39;22.00;99.90
7411;DHT22;3747;48.628;9.058;2022-10-16T11:48:15;21.90;99.90
7411;DHT22;3747;48.628;9.058;2022-10-16T11:50:49;22.00;99.90
7411;DHT22;3747;48.628;9.058;2022-10-16T11:53:24;22.10;99.90
7411;DHT22;3747;48.628;9.058;2022-10-16T11:56:02;22.20;99.90
7411;DHT22;3747;48.628;9.058;2022-10-16T11:58:32;22.40;99.90
7411;DHT22;3747;48.628;9.058;2022-10-16T12:01:10;22.50;99.90
7411;DHT22;3747;48.628;9.058;2022-10-16T12:03:46;22.70;99.90
7411;DHT22;3747;48.628;9.058;2022-10-16T12:06:24;23.00;99.90
7411;DHT22;3747;48.628;9.058;2022-10-16T12:08:53;23.60;99.90
7411;DHT22;3747;48.628;9.058;2022-10-16T12:11:39;24.40;99.90
7411;DHT22;3747;48.628;9.058;2022-10-16T12:14:18;25.00;99.90
7411;DHT22;3747;48.628;9.058;2022-10-16T12:16:53;25.40;99.90
7411;DHT22;3747;48.628;9.058;2022-10-16T12:19:21;26.00;99.90
7411;DHT22;3747;48.628;9.058;2022-10-16T12:21:50;26.20;99.90
7411;DHT22;3747;48.628;9.058;2022-10-16T12:24:42;26.40;99.90
7411;DHT22;3747;48.628;9.058;2022-10-16T12:27:23;26.20;99.90
7411;DHT22;3747;48.628;9.058;2022-10-16T12:29:55;26.20;99.90
7411;DHT22;3747;48.628;9.058;2022-10-16T12:32:28;26.40;99.90
7411;DHT22;3747;48.628;9.058;2022-10-16T12:34:58;26.30;99.90
7411;DHT22;3747;48.628;9.058;2022-10-16T12:37:28;26.10;99.90
7411;DHT22;3747;48.628;9.058;2022-10-16T12:39:56;26.50;99.90
7411;DHT22;3747;48.628;9.058;2022-10-16T12:42:33;26.60;99.90
7411;DHT22;3747;48.628;9.058;2022-10-16T12:45:01;25.10;99.90
7411;DHT22;3747;48.628;9.058;2022-10-16T12:47:46;25.10;99.90
7411;DHT22;3747;48.628;9.058;2022-10-16T12:50:29;25.30;99.90
7411;DHT22;3747;48.628;9.058;2022-10-16T12:52:57;25.10;99.90
7411;DHT22;3747;48.628;9.058;2022-10-16T12:55:25;24.40;99.90
7411;DHT22;3747;48.628;9.058;2022-10-16T12:58:16;24.20;99.90
7411;DHT22;3747;48.628;9.058;2022-10-16T13:00:46;24.60;99.90
7411;DHT22;3747;48.628;9.058;2022-10-16T13:03:56;25.90;99.90
7411;DHT22;3747;48.628;9.058;2022-10-16T13:06:39;26.00;99.90
7411;DHT22;3747;48.628;9.058;2022-10-16T13:09:30;27.30;99.90
7411;DHT22;3747;48.628;9.058;2022-10-16T13:12:12;27.10;99.90
7411;DHT22;3747;48.628;9.058;2022-10-16T13:15:08;26.40;99.90
7411;DHT22;3747;48.628;9.058;2022-10-16T13:17:44;26.90;99.90
7411;DHT22;3747;48.628;9.058;2022-10-16T13:20:22;27.10;99.90
7411;DHT22;3747;48.628;9.058;2022-10-16T13:23:00;26.90;99.90
7411;DHT22;3747;48.628;9.058;2022-10-16T13:25:39;26.00;99.90
7411;DHT22;3747;48.628;9.058;2022-10-16T13:28:16;26.40;99.90
7411;DHT22;3747;48.628;9.058;2022-10-16T13:30:54;26.50;99.90
7411;DHT22;3747;48.628;9.058;2022-10-16T13:33:36;27.10;99.90
7411;DHT22;3747;48.628;9.058;2022-10-16T13:36:04;27.10;99.90
7411;DHT22;3747;48.628;9.058;2022-10-16T13:38:33;27.40;99.90
7411;DHT22;3747;48.628;9.058;2022-10-16T13:41:02;27.00;99.90
7411;DHT22;3747;48.628;9.058;2022-10-16T13:43:32;26.30;99.90
7411;DHT22;3747;48.628;9.058;2022-10-16T13:46:04;25.80;99.90
7411;DHT22;3747;48.628;9.058;2022-10-16T13:48:32;25.30;99.90
7411;DHT22;3747;48.628;9.058;2022-10-16T13:51:05;24.60;99.90
7411;DHT22;3747;48.628;9.058;2022-10-16T13:53:49;24.00;99.90
7411;DHT22;3747;48.628;9.058;2022-10-16T13:56:18;23.60;99.90
7411;DHT22;3747;48.628;9.058;2022-10-16T13:58:45;23.90;99.90
7411;DHT22;3747;48.628;9.058;2022-10-16T14:01:19;24.10;99.90
7411;DHT22;3747;48.628;9.058;2022-10-16T14:03:47;24.00;99.90
7411;DHT22;3747;48.628;9.058;2022-10-16T14:06:16;24.10;99.90
7411;DHT22;3747;48.628;9.058;2022-10-16T14:08:46;24.20;99.90
7411;DHT22;3747;48.628;9.058;2022-10-16T14:11:20;24.10;99.90
7411;DHT22;3747;48.628;9.058;2022-10-16T14:13:48;23.90;99.90
7411;DHT22;3747;48.628;9.058;2022-10-16T14:16:19;23.90;99.90
7411;DHT22;3747;48.628;9.058;2022-10-16T14:18:49;23.70;99.90
7411;DHT22;3747;48.628;9.058;2022-10-16T14:21:21;23.60;99.90
7411;DHT22;3747;48.628;9.058;2022-10-16T14:23:48;23.90;99.90
7411;DHT22;3747;48.628;9.058;2022-10-16T14:26:18;23.90;99.90
7411;DHT22;3747;48.628;9.058;2022-10-16T14:28:47;23.60;99.90
7411;DHT22;3747;48.628;9.058;2022-10-16T14:31:27;23.60;99.90
7411;DHT22;3747;48.628;9.058;2022-10-16T14:33:54;23.70;99.90
7411;DHT22;3747;48.628;9.058;2022-10-16T14:36:22;23.90;99.90
7411;DHT22;3747;48.628;9.058;2022-10-16T14:38:54;23.90;99.90
7411;DHT22;3747;48.628;9.058;2022-10-16T14:41:23;24.30;99.90
7411;DHT22;3747;48.628;9.058;2022-10-16T14:43:52;24.40;99.90
7411;DHT22;3747;48.628;9.058;2022-10-16T14:46:21;24.50;99.90
7411;DHT22;3747;48.628;9.058;2022-10-16T14:48:58;24.70;99.90
7411;DHT22;3747;48.628;9.058;2022-10-16T14:51:26;24.80;99.90
7411;DHT22;3747;48.628;9.058;2022-10-16T14:53:53;24.70;99.90
7411;DHT22;3747;48.628;9.058;2022-10-16T14:56:22;24.70;99.90
7411;DHT22;3747;48.628;9.058;2022-10-16T14:58:50;24.30;99.90
7411;DHT22;3747;48.628;9.058;2022-10-16T15:01:17;24.30;99.90
7411;DHT22;3747;48.628;9.058;2022-10-16T15:03:44;24.40;99.90
7411;DHT22;3747;48.628;9.058;2022-10-16T15:06:13;24.60;99.90
7411;DHT22;3747;48.628;9.058;2022-10-16T15:08:40;24.90;99.90
7411;DHT22;3747;48.628;9.058;2022-10-16T15:11:09;25.00;99.90
7411;DHT22;3747;48.628;9.058;2022-10-16T15:13:37;24.80;99.90
7411;DHT22;3747;48.628;9.058;2022-10-16T15:16:04;24.50;99.90
7411;DHT22;3747;48.628;9.058;2022-10-16T15:18:31;24.20;99.90
7411;DHT22;3747;48.628;9.058;2022-10-16T15:20:57;24.00;99.90
7411;DHT22;3747;48.628;9.058;2022-10-16T15:23:25;24.30;99.90
7411;DHT22;3747;48.628;9.058;2022-10-16T15:25:53;24.30;99.90
7411;DHT22;3747;48.628;9.058;2022-10-16T15:28:22;24.50;99.90
7411;DHT22;3747;48.628;9.058;2022-10-16T15:30:50;24.70;99.90
7411;DHT22;3747;48.628;9.058;2022-10-16T15:33:18;24.50;99.90
7411;DHT22;3747;48.628;9.058;2022-10-16T15:35:46;24.20;99.90
7411;DHT22;3747;48.628;9.058;2022-10-16T15:38:18;24.00;99.90
7411;DHT22;3747;48.628;9.058;2022-10-16T15:40:47;23.60;99.90
7411;DHT22;3747;48.628;9.058;2022-10-16T15:43:15;23.30;99.90
7411;DHT22;3747;48.628;9.058;2022-10-16T15:45:42;22.90;99.90
7411;DHT22;3747;48.628;9.058;2022-10-16T15:48:10;22.50;99.90
7411;DHT22;3747;48.628;9.058;2022-10-16T15:50:38;22.10;99.90
7411;DHT22;3747;48.628;9.058;2022-10-16T15:53:05;21.70;99.90
7411;DHT22;3747;48.628;9.058;2022-10-16T15:55:31;21.40;99.90
7411;DHT22;3747;48.628;9.058;2022-10-16T15:58:03;21.20;99.90
7411;DHT22;3747;48.628;9.058;2022-10-16T16:00:29;20.80;99.90
7411;DHT22;3747;48.628;9.058;2022-10-16T16:02:56;20.40;99.90
7411;DHT22;3747;48.628;9.058;2022-10-16T16:05:32;20.20;99.90
7411;DHT22;3747;48.628;9.058;2022-10-16T16:08:00;19.90;99.90
7411;DHT22;3747;48.628;9.058;2022-10-16T16:10:27;19.60;99.90
7411;DHT22;3747;48.628;9.058;2022-10-16T16:12:54;19.30;99.90
7411;DHT22;3747;48.628;9.058;2022-10-16T16:15:22;19.00;99.90
7411;DHT22;3747;48.628;9.058;2022-10-16T16:17:49;18.80;99.90
7411;DHT22;3747;48.628;9.058;2022-10-16T16:20:16;18.60;99.90
7411;DHT22;3747;48.628;9.058;2022-10-16T16:22:43;18.40;99.90